Time;durP1;ratioP1;P1;durP2;ratioP2;P2;SDS_P1;SDS_P2;PMS_P1;PMS_P2;Temp;Humidity;BMP_temperature;BMP_pressure;BME280_temperature;BME280_humidity;BME280_pressure;Samples;Min_cycle;Max_cycle;Signal;HPM_P1;HPM_P2
2022/04/10 00:01:29;;;;;;;0.70;0.50;;;3.30;99.90;;;;;;5031894;28;20675;-73
2022/04/10 00:03:56;;;;;;;0.70;0.50;;;3.30;99.90;;;;;;5031653;28;20414;-73
2022/04/10 00:06:22;;;;;;;0.70;0.50;;;3.30;99.90;;;;;;5031755;28;20187;-73
2022/04/10 00:08:48;;;;;;;0.80;0.60;;;3.20;99.90;;;;;;5031751;28;20881;-73
2022/04/10 00:11:13;;;;;;;0.70;0.47;;;3.20;99.90;;;;;;5014125;28;20190;-73
2022/04/10 00:13:39;;;;;;;0.70;0.50;;;3.20;99.90;;;;;;5031486;28;20242;-73
2022/04/10 00:16:04;;;;;;;0.70;0.50;;;3.20;99.90;;;;;;5031629;28;20518;-73
2022/04/10 00:18:31;;;;;;;0.80;0.80;;;3.10;99.90;;;;;;5014070;28;20168;-73
2022/04/10 00:20:56;;;;;;;0.70;0.50;;;3.10;99.90;;;;;;5031398;28;20174;-72
2022/04/10 00:23:22;;;;;;;0.70;0.50;;;3.10;99.90;;;;;;5031619;28;20895;-73
2022/04/10 00:25:47;;;;;;;0.70;0.50;;;3.10;99.90;;;;;;5031381;28;20211;-73
2022/04/10 00:28:13;;;;;;;0.83;0.70;;;3.00;99.90;;;;;;5031722;28;20175;-73
2022/04/10 00:30:38;;;;;;;0.70;0.50;;;3.00;99.90;;;;;;5031552;28;20595;-73
2022/04/10 00:33:04;;;;;;;0.70;0.60;;;3.00;99.90;;;;;;5014165;28;20168;-72
2022/04/10 00:35:30;;;;;;;0.70;0.50;;;3.00;99.90;;;;;;5031335;28;20187;-73
2022/04/10 00:37:55;;;;;;;0.70;0.50;;;3.00;99.90;;;;;;5031600;28;20222;-73
2022/04/10 00:40:21;;;;;;;0.73;0.50;;;2.90;99.90;;;;;;5013792;28;20175;-73
2022/04/10 00:42:48;;;;;;;0.70;0.43;;;2.90;99.90;;;;;;5031511;28;20168;-73
2022/04/10 00:45:14;;;;;;;0.70;0.50;;;2.90;99.90;;;;;;5031180;28;20168;-73
2022/04/10 00:47:39;;;;;;;0.70;0.50;;;2.90;99.90;;;;;;5031428;28;20402;-73
2022/04/10 00:50:07;;;;;;;1.27;1.17;;;2.90;99.90;;;;;;5031404;28;20831;-73
2022/04/10 00:52:34;;;;;;;0.70;0.40;;;2.90;99.90;;;;;;5031418;28;20175;-73
2022/04/10 00:54:59;;;;;;;0.80;0.57;;;2.90;99.90;;;;;;5013354;28;20413;-73
2022/04/10 00:57:25;;;;;;;0.70;0.50;;;2.90;99.90;;;;;;5031296;28;20418;-73
2022/04/10 00:59:51;;;;;;;0.70;0.50;;;2.90;99.90;;;;;;5013566;28;20280;-73
2022/04/10 01:02:17;;;;;;;0.70;0.50;;;2.90;99.90;;;;;;5032689;28;20472;-72
2022/04/10 01:04:42;;;;;;;0.70;0.50;;;2.90;99.90;;;;;;5034804;28;20174;-73
2022/04/10 01:07:11;;;;;;;0.70;0.50;;;2.90;99.90;;;;;;5034777;28;20191;-73
2022/04/10 01:09:39;;;;;;;0.70;0.50;;;2.90;99.90;;;;;;5034754;28;20196;-73
2022/04/10 01:12:05;;;;;;;0.70;0.50;;;2.80;99.90;;;;;;5034709;28;20399;-73
2022/04/10 01:14:31;;;;;;;0.90;0.70;;;2.90;99.90;;;;;;5016725;28;20402;-73
2022/04/10 01:16:57;;;;;;;0.80;0.80;;;2.90;99.90;;;;;;5034524;28;20436;-73
2022/04/10 01:19:23;;;;;;;0.70;0.50;;;2.90;99.90;;;;;;5034738;28;20176;-73
2022/04/10 01:21:51;;;;;;;0.70;0.50;;;2.90;99.90;;;;;;5034345;28;20417;-74
2022/04/10 01:24:17;;;;;;;0.70;0.50;;;2.90;99.90;;;;;;5034390;28;20903;-73
2022/04/10 01:26:43;;;;;;;0.70;0.50;;;2.80;99.90;;;;;;5034459;28;20429;-73
2022/04/10 01:29:11;;;;;;;1.30;1.20;;;2.80;99.90;;;;;;5034331;28;20496;-73
2022/04/10 01:31:44;;;;;;;0.70;0.50;;;2.80;99.90;;;;;;5034350;28;20399;-73
2022/04/10 01:34:13;;;;;;;0.70;0.50;;;2.80;99.90;;;;;;5016396;28;20498;-73
2022/04/10 01:36:40;;;;;;;0.70;0.50;;;2.80;99.90;;;;;;5034157;28;20480;-73
2022/04/10 01:39:07;;;;;;;0.70;0.47;;;2.80;99.90;;;;;;5034254;28;20406;-73
2022/04/10 01:41:34;;;;;;;0.70;0.50;;;2.80;99.90;;;;;;5034218;28;20394;-73
2022/04/10 01:44:01;;;;;;;0.70;0.50;;;2.80;99.90;;;;;;5033899;28;20467;-73
2022/04/10 01:46:28;;;;;;;0.70;0.50;;;2.80;99.90;;;;;;5016328;28;20429;-72
2022/04/10 01:48:54;;;;;;;0.70;0.50;;;2.80;99.90;;;;;;5034032;28;20438;-73
2022/04/10 01:51:20;;;;;;;0.70;0.50;;;2.80;99.90;;;;;;5033759;28;20464;-73
2022/04/10 01:53:45;;;;;;;0.70;0.50;;;2.80;99.90;;;;;;5033700;28;20480;-73
2022/04/10 01:56:12;;;;;;;0.70;0.50;;;2.80;99.90;;;;;;5033850;28;20262;-73
2022/04/10 01:58:40;;;;;;;0.70;0.50;;;2.80;99.90;;;;;;5033847;28;20166;-74
2022/04/10 02:01:08;;;;;;;0.70;0.50;;;2.80;99.90;;;;;;5033699;28;20425;-73
2022/04/10 02:03:34;;;;;;;1.83;0.70;;;2.80;99.90;;;;;;5033784;28;20410;-73
2022/04/10 02:06:00;;;;;;;0.70;0.50;;;2.80;99.90;;;;;;5033301;28;20436;-73
2022/04/10 02:08:27;;;;;;;0.70;0.50;;;2.80;99.90;;;;;;5033634;28;20425;-73
2022/04/10 02:10:53;;;;;;;0.70;0.50;;;2.80;99.90;;;;;;5033641;28;20399;-73
2022/04/10 02:13:19;;;;;;;0.70;0.50;;;2.80;99.90;;;;;;5032391;28;20911;-73
2022/04/10 02:15:45;;;;;;;0.70;0.50;;;2.80;99.90;;;;;;5033045;28;20475;-73
2022/04/10 02:18:10;;;;;;;0.70;0.50;;;2.80;99.90;;;;;;5033330;28;20395;-73
2022/04/10 02:20:36;;;;;;;0.70;0.50;;;2.80;99.90;;;;;;5033246;28;20168;-73
2022/04/10 02:23:02;;;;;;;0.70;0.50;;;2.80;99.90;;;;;;5033169;28;20182;-73
2022/04/10 02:25:27;;;;;;;0.70;0.50;;;2.80;99.90;;;;;;5032988;28;20191;-73
2022/04/10 02:27:53;;;;;;;0.70;0.50;;;2.80;99.90;;;;;;5033082;28;20191;-73
2022/04/10 02:30:19;;;;;;;1.27;1.17;;;2.80;99.90;;;;;;5032921;28;20203;-73
2022/04/10 02:32:44;;;;;;;0.70;0.50;;;2.90;99.90;;;;;;5033007;28;20771;-73
2022/04/10 02:35:11;;;;;;;0.70;0.50;;;2.90;99.90;;;;;;5032690;28;20216;-73
2022/04/10 02:37:37;;;;;;;0.70;0.50;;;2.90;99.90;;;;;;5032933;28;20420;-73
2022/04/10 02:40:04;;;;;;;0.70;0.50;;;2.90;99.90;;;;;;5032846;28;20489;-73
2022/04/10 02:42:33;;;;;;;0.70;0.40;;;2.90;99.90;;;;;;5032823;28;20418;-73
2022/04/10 02:44:59;;;;;;;0.70;0.50;;;2.90;99.90;;;;;;5032529;28;20468;-73
2022/04/10 02:47:24;;;;;;;1.33;0.93;;;3.00;99.90;;;;;;5032752;28;20441;-73
2022/04/10 02:49:50;;;;;;;0.80;0.60;;;3.00;99.90;;;;;;5032620;28;20454;-73
2022/04/10 02:52:15;;;;;;;0.70;0.50;;;3.00;99.90;;;;;;5032744;28;20186;-73
2022/04/10 02:54:41;;;;;;;0.70;0.50;;;3.00;99.90;;;;;;5032393;28;20163;-73
2022/04/10 02:57:06;;;;;;;0.70;0.50;;;3.10;99.90;;;;;;5032515;28;20691;-73
2022/04/10 02:59:32;;;;;;;0.70;0.50;;;3.10;99.90;;;;;;5032447;28;20187;-73
2022/04/10 03:01:57;;;;;;;0.70;0.50;;;3.10;99.90;;;;;;5032485;28;20168;-73
2022/04/10 03:04:23;;;;;;;0.70;0.43;;;3.20;99.90;;;;;;5032188;28;20167;-73
2022/04/10 03:06:48;;;;;;;0.70;0.50;;;3.20;99.90;;;;;;5032312;28;20242;-73
2022/04/10 03:09:14;;;;;;;0.70;0.50;;;3.30;99.90;;;;;;5032290;28;20245;-73
2022/04/10 03:11:40;;;;;;;0.70;0.47;;;3.40;99.90;;;;;;5032449;28;20300;-73
2022/04/10 03:14:06;;;;;;;0.70;0.50;;;3.40;99.90;;;;;;5032132;28;20163;-73
2022/04/10 03:16:31;;;;;;;0.70;0.50;;;3.50;99.90;;;;;;5032138;28;20266;-73
2022/04/10 03:18:57;;;;;;;0.70;0.50;;;3.50;99.90;;;;;;5032193;28;20298;-74
2022/04/10 03:21:22;;;;;;;0.70;0.50;;;3.60;99.90;;;;;;5032235;28;20254;-73
2022/04/10 03:23:48;;;;;;;0.70;0.50;;;3.70;99.90;;;;;;5032047;28;20175;-73
2022/04/10 03:26:13;;;;;;;0.70;0.50;;;3.70;99.90;;;;;;5031631;28;20583;-73
2022/04/10 03:28:39;;;;;;;0.70;0.50;;;3.70;99.90;;;;;;5032065;28;20179;-73
2022/04/10 03:31:04;;;;;;;1.10;0.70;;;3.80;99.90;;;;;;5032159;28;20206;-73
2022/04/10 03:33:30;;;;;;;0.70;0.50;;;3.80;99.90;;;;;;5032060;28;20403;-73
2022/04/10 03:35:56;;;;;;;0.70;0.50;;;3.90;99.90;;;;;;5031823;28;20249;-73
2022/04/10 03:38:22;;;;;;;0.80;0.60;;;3.90;99.90;;;;;;5031750;28;20171;-73
2022/04/10 03:40:48;;;;;;;0.70;0.50;;;3.90;99.90;;;;;;5031731;28;20421;-73
2022/04/10 03:43:14;;;;;;;0.70;0.50;;;3.90;99.90;;;;;;5031872;28;20402;-73
2022/04/10 03:45:39;;;;;;;0.80;0.60;;;4.00;99.90;;;;;;5031514;28;20853;-73
2022/04/10 03:48:06;;;;;;;0.80;0.60;;;4.00;99.90;;;;;;5014140;28;20994;-73
2022/04/10 03:50:33;;;;;;;0.70;0.50;;;4.00;99.90;;;;;;5031750;28;20206;-73
2022/04/10 03:53:00;;;;;;;0.80;0.50;;;4.00;99.90;;;;;;5031777;28;20406;-73
2022/04/10 03:55:26;;;;;;;0.80;0.63;;;4.00;99.90;;;;;;5031599;28;20483;-73
2022/04/10 03:57:52;;;;;;;0.70;0.50;;;4.00;99.90;;;;;;5014123;28;20422;-73
2022/04/10 04:00:18;;;;;;;0.70;0.50;;;4.00;99.90;;;;;;5031672;28;20437;-73
2022/04/10 04:02:44;;;;;;;0.70;0.50;;;4.10;99.90;;;;;;5031762;28;20194;-75
2022/04/10 04:05:10;;;;;;;0.70;0.50;;;4.20;99.90;;;;;;5031428;28;20959;-73
2022/04/10 04:07:36;;;;;;;1.00;0.60;;;4.20;99.90;;;;;;5031693;28;20178;-73
2022/04/10 04:10:02;;;;;;;0.70;0.50;;;4.20;99.90;;;;;;5032187;28;20203;-73
2022/04/10 04:12:28;;;;;;;1.10;0.83;;;4.20;99.90;;;;;;5031681;28;20410;-73
2022/04/10 04:14:53;;;;;;;0.70;0.40;;;4.30;99.90;;;;;;5031547;28;20824;-73
2022/04/10 04:17:19;;;;;;;0.70;0.50;;;4.30;99.90;;;;;;5031609;28;20198;-73
2022/04/10 04:19:46;;;;;;;0.70;0.50;;;4.30;99.90;;;;;;5031668;28;20229;-74
2022/04/10 04:22:12;;;;;;;0.70;0.50;;;4.40;99.90;;;;;;5014130;28;20249;-73
2022/04/10 04:24:37;;;;;;;2.20;0.97;;;4.40;99.90;;;;;;5031361;28;20414;-73
2022/04/10 04:27:03;;;;;;;1.23;0.70;;;4.40;99.90;;;;;;5031581;28;20191;-73
2022/04/10 04:29:28;;;;;;;0.70;0.50;;;4.40;99.90;;;;;;5013697;28;20195;-73
2022/04/10 04:31:54;;;;;;;0.70;0.50;;;4.40;99.90;;;;;;5031595;28;20176;-73
2022/04/10 04:34:21;;;;;;;0.70;0.50;;;4.40;99.90;;;;;;5031484;28;20164;-73
2022/04/10 04:36:46;;;;;;;0.73;0.60;;;4.40;99.90;;;;;;5032245;28;20179;-73
2022/04/10 04:39:12;;;;;;;0.90;0.80;;;4.40;99.90;;;;;;5035347;28;20768;-73
2022/04/10 04:41:37;;;;;;;0.70;0.50;;;4.40;99.90;;;;;;5035351;28;20649;-74
2022/04/10 04:44:03;;;;;;;0.70;0.50;;;4.30;99.90;;;;;;5035098;28;20174;-73
2022/04/10 04:46:29;;;;;;;0.70;0.50;;;4.30;99.90;;;;;;5035051;28;20274;-74
2022/04/10 04:48:54;;;;;;;0.80;0.60;;;4.30;99.90;;;;;;5035105;28;20890;-73
2022/04/10 04:51:20;;;;;;;0.70;0.50;;;4.30;99.90;;;;;;5035171;28;20704;-73
2022/04/10 04:53:45;;;;;;;0.70;0.47;;;4.20;99.90;;;;;;5035011;28;20164;-73
2022/04/10 04:56:11;;;;;;;0.70;0.50;;;4.30;99.90;;;;;;5034753;28;20257;-74
2022/04/10 04:58:36;;;;;;;0.70;0.50;;;4.20;99.90;;;;;;5034892;28;20167;-73
2022/04/10 05:01:02;;;;;;;0.70;0.57;;;4.30;99.90;;;;;;5017479;28;20552;-74
2022/04/10 05:03:28;;;;;;;0.70;0.60;;;4.30;99.90;;;;;;5034816;28;20251;-74
2022/04/10 05:05:54;;;;;;;0.70;0.50;;;4.30;99.90;;;;;;5034612;28;20418;-73
2022/04/10 05:08:22;;;;;;;0.70;0.50;;;4.40;99.90;;;;;;5034800;28;20164;-73
2022/04/10 05:10:47;;;;;;;0.70;0.47;;;4.50;99.90;;;;;;5016904;28;20195;-73
2022/04/10 05:13:13;;;;;;;1.87;1.77;;;4.50;99.90;;;;;;5034664;28;20405;-73
2022/04/10 05:15:38;;;;;;;1.53;0.83;;;4.60;99.90;;;;;;5034367;28;20330;-73
2022/04/10 05:18:04;;;;;;;1.73;1.20;;;4.70;99.90;;;;;;5034560;28;20305;-73
2022/04/10 05:20:30;;;;;;;0.70;0.50;;;4.80;99.90;;;;;;5034615;28;20167;-73
2022/04/10 05:22:56;;;;;;;1.20;1.10;;;4.90;99.90;;;;;;5034621;28;20641;-74
2022/04/10 05:25:22;;;;;;;1.33;0.90;;;5.10;99.90;;;;;;5034502;28;20163;-74
2022/04/10 05:27:47;;;;;;;0.70;0.50;;;5.30;99.90;;;;;;5034503;28;20407;-74
2022/04/10 05:30:13;;;;;;;0.70;0.50;;;5.50;99.90;;;;;;5034347;28;20563;-74
2022/04/10 05:32:42;;;;;;;5.93;1.50;;;5.70;99.90;;;;;;5034305;28;20170;-74
2022/04/10 05:35:11;;;;;;;0.70;0.50;;;6.10;99.90;;;;;;5034150;28;20688;-74
2022/04/10 05:37:37;;;;;;;1.63;1.03;;;6.40;99.90;;;;;;5034245;28;20393;-74
2022/04/10 05:40:03;;;;;;;0.80;0.70;;;6.80;99.90;;;;;;5016338;28;20410;-73
2022/04/10 05:42:29;;;;;;;0.90;0.73;;;7.10;99.90;;;;;;5033989;28;20171;-74
2022/04/10 05:45:05;;;;;;;4.30;0.80;;;7.40;99.90;;;;;;5033797;28;20409;-73
2022/04/10 05:47:31;;;;;;;2.50;0.80;;;7.70;99.90;;;;;;5033817;28;20172;-74
2022/04/10 05:49:56;;;;;;;1.93;0.80;;;8.00;99.90;;;;;;5033887;28;20457;-74
2022/04/10 05:52:22;;;;;;;0.77;0.63;;;8.30;99.90;;;;;;5034014;28;20171;-74
2022/04/10 05:54:47;;;;;;;2.40;2.30;;;8.50;99.90;;;;;;5033711;28;20198;-74
2022/04/10 05:57:13;;;;;;;1.23;1.17;;;8.80;99.90;;;;;;5033874;28;20239;-74
2022/04/10 05:59:38;;;;;;;2.13;2.03;;;9.00;99.90;;;;;;5033787;28;20214;-74
2022/04/10 06:02:04;;;;;;;0.90;0.77;;;9.20;99.90;;;;;;5033789;28;20164;-74
2022/04/10 06:04:30;;;;;;;0.80;0.80;;;9.30;99.90;;;;;;5033497;28;20168;-74
2022/04/10 06:06:55;;;;;;;0.83;0.77;;;9.50;99.90;;;;;;5033826;28;20285;-74
2022/04/10 06:09:21;;;;;;;2.60;1.43;;;9.70;99.90;;;;;;5033576;28;20194;-74
2022/04/10 06:11:46;;;;;;;1.20;0.93;;;10.10;99.90;;;;;;5033944;28;20213;-74
2022/04/10 06:14:12;;;;;;;1.57;1.10;;;10.60;99.90;;;;;;5033442;28;20232;-74
2022/04/10 06:16:37;;;;;;;0.80;0.60;;;11.00;99.90;;;;;;5033430;28;20665;-74
2022/04/10 06:19:03;;;;;;;2.63;1.17;;;11.50;99.90;;;;;;5033508;28;20174;-75
2022/04/10 06:21:28;;;;;;;0.97;0.57;;;12.10;99.90;;;;;;5033528;28;20249;-74
2022/04/10 06:23:54;;;;;;;1.20;0.67;;;12.80;99.90;;;;;;5033517;28;20187;-75
2022/04/10 06:26:20;;;;;;;1.83;1.73;;;13.40;99.90;;;;;;5033088;28;20664;-75
2022/04/10 06:28:45;;;;;;;0.80;0.50;;;14.20;99.90;;;;;;5033281;28;20167;-75
2022/04/10 06:31:11;;;;;;;1.20;1.00;;;14.90;99.90;;;;;;5033314;28;20804;-75
2022/04/10 06:33:37;;;;;;;0.80;0.70;;;15.50;99.90;;;;;;5033233;28;20250;-75
2022/04/10 06:36:03;;;;;;;1.10;0.60;;;15.50;92.10;;;;;;5032864;28;20183;-74
2022/04/10 06:38:28;;;;;;;1.60;0.80;;;15.20;90.80;;;;;;5033465;28;20664;-75
2022/04/10 06:40:54;;;;;;;1.27;0.90;;;15.00;85.30;;;;;;5015335;28;20415;-75
2022/04/10 06:43:20;;;;;;;1.67;1.33;;;14.90;83.40;;;;;;5033281;28;20178;-75
2022/04/10 06:45:46;;;;;;;0.83;0.80;;;15.00;83.70;;;;;;5032686;28;20727;-74
2022/04/10 06:48:12;;;;;;;1.67;1.10;;;14.80;82.10;;;;;;5032926;28;20438;-74
2022/04/10 06:50:37;;;;;;;1.70;1.17;;;14.30;80.30;;;;;;5032875;28;20507;-74
2022/04/10 06:53:03;;;;;;;0.80;0.60;;;13.90;81.40;;;;;;5032962;28;20171;-75
2022/04/10 06:55:30;;;;;;;0.90;0.80;;;13.60;82.90;;;;;;5014784;28;20550;-74
2022/04/10 06:57:56;;;;;;;1.07;0.70;;;13.30;85.00;;;;;;5032795;28;20167;-74
2022/04/10 07:00:22;;;;;;;0.80;0.50;;;13.20;87.70;;;;;;5014104;28;20801;-75
2022/04/10 07:02:48;;;;;;;0.90;0.80;;;13.40;90.10;;;;;;5032447;28;20537;-74
2022/04/10 07:05:14;;;;;;;2.13;2.03;;;13.60;88.70;;;;;;5032424;28;20167;-74
2022/04/10 07:07:39;;;;;;;1.23;1.13;;;13.60;88.40;;;;;;5032637;28;20418;-74
2022/04/10 07:10:05;;;;;;;1.10;0.80;;;13.60;89.60;;;;;;5032763;28;20551;-75
2022/04/10 07:12:31;;;;;;;1.93;1.13;;;14.00;91.60;;;;;;5032480;28;20185;-74
2022/04/10 07:15:01;;;;;;;1.07;0.97;;;14.80;90.30;;;;;;5032254;28;20489;-75
2022/04/10 07:17:26;;;;;;;1.10;1.00;;;15.80;89.40;;;;;;5014622;28;20187;-75
2022/04/10 07:19:52;;;;;;;1.23;1.03;;;16.80;84.30;;;;;;5032492;28;20492;-75
2022/04/10 07:25:01;;;;;;;1.10;1.00;;;18.50;68.50;;;;;;5031915;28;20186;-75
2022/04/10 07:27:27;;;;;;;1.67;1.50;;;19.20;65.00;;;;;;5032133;28;20430;-75
2022/04/10 07:29:52;;;;;;;1.47;1.37;;;19.80;59.30;;;;;;5032137;28;20199;-75
2022/04/10 07:32:18;;;;;;;1.40;1.13;;;20.40;57.70;;;;;;5032289;28;20175;-76
2022/04/10 07:34:43;;;;;;;1.00;0.90;;;21.00;55.00;;;;;;5031706;28;20175;-74
2022/04/10 07:37:09;;;;;;;0.87;0.63;;;21.60;53.90;;;;;;5032011;28;20195;-75
2022/04/10 07:39:34;;;;;;;1.20;1.10;;;22.20;52.40;;;;;;5032162;28;20226;-75
2022/04/10 07:42:00;;;;;;;0.90;0.80;;;22.90;50.60;;;;;;5014297;28;20168;-75
2022/04/10 07:44:25;;;;;;;4.83;2.17;;;23.60;49.80;;;;;;5031622;28;20168;-74
2022/04/10 07:49:35;;;;;;;2.30;1.30;;;24.60;47.20;;;;;;5031983;28;20249;-75
2022/04/10 07:52:00;;;;;;;1.40;1.13;;;25.30;46.70;;;;;;5031966;28;20422;-75
2022/04/10 07:54:26;;;;;;;3.60;0.97;;;25.90;45.50;;;;;;5031660;28;20168;-75
2022/04/10 07:56:51;;;;;;;1.63;1.23;;;26.60;44.10;;;;;;5031879;28;20183;-75
2022/04/10 07:59:17;;;;;;;1.63;1.23;;;26.60;42.30;;;;;;5031742;28;20186;-75
2022/04/10 08:01:43;;;;;;;1.00;0.80;;;26.80;42.00;;;;;;5031848;28;20172;-76
2022/04/10 08:04:08;;;;;;;1.00;0.90;;;27.40;41.40;;;;;;5031862;28;20175;-75
2022/04/10 08:06:34;;;;;;;1.10;1.00;;;27.70;40.60;;;;;;5031515;28;20214;-76
2022/04/10 08:09:00;;;;;;;1.50;1.00;;;28.20;39.80;;;;;;5031793;28;20699;-76
2022/04/10 08:11:25;;;;;;;1.30;1.20;;;28.70;39.20;;;;;;5016003;28;20757;-76
2022/04/10 08:13:51;;;;;;;1.20;1.10;;;28.10;37.80;;;;;;5035475;28;20170;-76
2022/04/10 08:16:17;;;;;;;0.90;0.77;;;27.20;38.10;;;;;;5035338;28;20195;-76
2022/04/10 08:18:42;;;;;;;1.10;0.83;;;27.00;38.30;;;;;;5035811;28;20167;-76
2022/04/10 08:21:08;;;;;;;1.10;0.90;;;27.60;38.40;;;;;;5035687;28;20222;-76
2022/04/10 08:23:34;;;;;;;1.97;1.27;;;27.70;37.60;;;;;;5017846;28;20175;-76
2022/04/10 08:26:00;;;;;;;0.97;0.73;;;26.70;37.30;;;;;;5035530;28;20707;-76
2022/04/10 08:28:25;;;;;;;1.10;0.90;;;26.00;37.70;;;;;;5035396;28;20414;-76
2022/04/10 08:30:51;;;;;;;0.90;0.73;;;26.80;38.40;;;;;;5017530;28;20202;-76
2022/04/10 08:33:17;;;;;;;0.93;0.77;;;28.30;37.30;;;;;;5035393;28;20164;-76
2022/04/10 08:35:43;;;;;;;1.20;0.80;;;29.80;36.00;;;;;;5035094;28;20417;-76
2022/04/10 08:38:08;;;;;;;1.40;0.70;;;31.10;34.80;;;;;;5035467;28;20176;-76
2022/04/10 08:40:34;;;;;;;2.27;2.07;;;31.80;32.80;;;;;;5017543;28;20171;-76
2022/04/10 08:43:02;;;;;;;1.77;1.00;;;32.40;32.60;;;;;;5035212;28;20639;-76
2022/04/10 08:45:28;;;;;;;1.77;0.93;;;32.30;32.60;;;;;;5034965;28;20183;-76
2022/04/10 08:47:55;;;;;;;1.27;0.80;;;32.00;31.50;;;;;;5035251;28;20787;-75
2022/04/10 08:50:23;;;;;;;1.10;1.00;;;30.70;31.50;;;;;;5017357;28;20458;-76
2022/04/10 08:52:52;;;;;;;1.87;1.20;;;30.00;31.90;;;;;;5017350;28;20406;-76
2022/04/10 08:55:19;;;;;;;1.30;1.20;;;30.10;32.50;;;;;;5016930;28;20407;-76
2022/04/10 08:57:45;;;;;;;2.93;1.27;;;29.60;31.70;;;;;;5035056;28;20452;-76
2022/04/10 09:00:11;;;;;;;1.03;0.93;;;30.40;32.30;;;;;;5035012;28;20819;-77
2022/04/10 09:02:46;;;;;;;2.13;1.00;;;30.50;32.30;;;;;;5034903;28;20175;-77
2022/04/10 09:05:17;;;;;;;1.10;1.00;;;30.70;31.90;;;;;;5034458;28;20770;-77
2022/04/10 09:08:17;;;;;;;2.17;0.90;;;30.20;30.80;;;;;;5034865;28;20493;-76
2022/04/10 09:10:52;;;;;;;1.80;1.20;;;28.90;30.80;;;;;;5034248;28;20480;-76
2022/04/10 09:13:34;;;;;;;2.33;2.20;;;27.50;31.30;;;;;;5034585;28;20520;-76
2022/04/10 09:16:02;;;;;;;1.00;0.90;;;26.30;32.50;;;;;;5034390;28;20775;-75
2022/04/10 09:18:27;;;;;;;1.70;1.60;;;25.90;34.00;;;;;;5016852;28;20414;-75
2022/04/10 09:21:07;;;;;;;2.60;0.90;;;25.40;34.20;;;;;;5034603;28;20402;-76
2022/04/10 09:23:34;;;;;;;1.10;1.00;;;24.90;35.30;;;;;;5016225;28;20640;-76
2022/04/10 09:25:59;;;;;;;1.30;1.00;;;25.20;35.40;;;;;;5016512;28;20434;-76
2022/04/10 09:28:47;;;;;;;1.20;1.07;;;25.90;35.80;;;;;;5034479;28;20417;-75
2022/04/10 09:31:29;;;;;;;5.40;2.50;;;27.10;34.80;;;;;;5034445;28;20402;-75
2022/04/10 09:33:55;;;;;;;0.90;0.70;;;27.90;34.90;;;;;;5034308;28;20394;-75
2022/04/10 09:36:31;;;;;;;1.80;0.90;;;28.80;33.90;;;;;;5034039;28;20410;-75
2022/04/10 09:38:56;;;;;;;2.27;2.07;;;28.00;32.50;;;;;;5034154;28;20397;-76
2022/04/10 09:41:22;;;;;;;8.80;1.47;;;28.50;33.50;;;;;;5034149;28;20393;-75
2022/04/10 09:43:47;;;;;;;2.50;2.07;;;29.30;32.60;;;;;;5034120;28;20172;-76
2022/04/10 09:46:13;;;;;;;1.27;1.17;;;28.60;30.90;;;;;;5033752;28;20194;-75
2022/04/10 09:48:39;;;;;;;1.77;1.20;;;27.70;30.60;;;;;;5034052;28;20215;-75
2022/04/10 09:51:05;;;;;;;8.57;1.53;;;26.90;31.20;;;;;;5033961;28;20191;-76
2022/04/10 09:53:32;;;;;;;1.00;0.83;;;28.60;32.80;;;;;;5033920;28;20159;-76
2022/04/10 09:56:00;;;;;;;1.53;1.03;;;31.20;32.30;;;;;;5033593;28;20180;-76
2022/04/10 09:58:26;;;;;;;1.10;0.90;;;31.40;30.80;;;;;;5034043;28;20472;-74
2022/04/10 10:00:56;;;;;;;1.40;1.30;;;30.20;30.00;;;;;;5033766;28;20813;-76
2022/04/10 10:03:29;;;;;;;1.77;1.33;;;28.90;30.20;;;;;;5033967;28;20406;-75
2022/04/10 10:05:56;;;;;;;0.90;0.80;;;27.80;31.00;;;;;;5033470;28;20799;-75
2022/04/10 10:08:23;;;;;;;0.90;0.80;;;27.60;31.80;;;;;;5033719;28;20836;-75
2022/04/10 10:10:49;;;;;;;1.00;0.67;;;29.30;32.10;;;;;;5033481;28;20843;-76
2022/04/10 10:13:15;;;;;;;1.00;0.87;;;30.10;30.70;;;;;;5033728;28;20402;-75
2022/04/10 10:15:43;;;;;;;1.60;1.50;;;31.80;30.60;;;;;;5033283;28;20454;-75
2022/04/10 10:18:13;;;;;;;1.57;1.23;;;34.10;28.80;;;;;;5033530;28;20414;-76
2022/04/10 10:20:42;;;;;;;1.00;0.90;;;36.30;28.30;;;;;;5033438;28;20494;-76
2022/04/10 10:23:10;;;;;;;3.57;1.93;;;37.30;26.90;;;;;;5033419;28;20411;-76
2022/04/10 10:25:47;;;;;;;1.77;1.20;;;36.30;26.00;;;;;;5033041;28;20430;-76
2022/04/10 10:28:34;;;;;;;1.67;1.17;;;34.80;26.10;;;;;;5033455;28;20448;-76
2022/04/10 10:31:18;;;;;;;1.30;1.10;;;32.90;26.10;;;;;;5033173;28;20460;-75
2022/04/10 10:33:54;;;;;;;1.43;0.83;;;31.10;27.00;;;;;;5015078;28;20414;-74
2022/04/10 10:36:26;;;;;;;1.00;0.70;;;29.20;27.90;;;;;;5032444;28;20904;-75
2022/04/10 10:38:52;;;;;;;2.70;2.10;;;27.70;29.00;;;;;;5033052;28;20769;-75
2022/04/10 10:41:18;;;;;;;2.37;0.90;;;26.20;30.00;;;;;;5033127;28;20395;-74
2022/04/10 10:43:45;;;;;;;0.90;0.70;;;25.00;31.30;;;;;;5032924;28;20406;-74
2022/04/10 10:46:34;;;;;;;1.23;0.93;;;23.90;32.50;;;;;;5032706;28;20187;-75
2022/04/10 10:49:11;;;;;;;1.10;1.00;;;22.90;34.50;;;;;;5032867;28;20403;-75
2022/04/10 10:51:39;;;;;;;0.90;0.73;;;22.30;35.80;;;;;;5032845;28;20464;-75
2022/04/10 10:54:10;;;;;;;0.80;0.60;;;22.00;36.80;;;;;;5014909;28;20422;-76
2022/04/10 10:56:43;;;;;;;5.70;1.20;;;23.50;38.30;;;;;;5069102;28;20943;-75
2022/04/10 10:59:24;;;;;;;1.30;1.20;;;27.20;37.30;;;;;;5069329;28;20764;-75
2022/04/10 11:02:02;;;;;;;1.20;1.00;;;31.00;34.70;;;;;;5069197;28;20894;-76
2022/04/10 11:04:32;;;;;;;1.20;1.00;;;33.60;31.00;;;;;;5069113;28;20400;-76
2022/04/10 11:07:39;;;;;;;0.90;0.70;;;34.20;29.90;;;;;;5068988;28;20491;-75
2022/04/10 11:10:10;;;;;;;1.03;0.80;;;35.30;29.10;;;;;;5066670;28;20963;-75
2022/04/10 11:13:00;;;;;;;1.00;0.87;;;35.20;27.90;;;;;;5068669;28;20506;-75
2022/04/10 11:15:31;;;;;;;1.17;1.00;;;35.00;27.60;;;;;;5068652;28;20452;-76
2022/04/10 11:18:21;;;;;;;1.00;0.83;;;34.50;27.10;;;;;;5068979;28;20542;-76
2022/04/10 11:20:57;;;;;;;1.17;1.07;;;34.40;27.10;;;;;;5068950;28;20740;-76
2022/04/10 11:23:29;;;;;;;1.10;1.00;;;34.00;26.30;;;;;;5068887;28;20384;-76
2022/04/10 11:26:02;;;;;;;1.40;0.90;;;33.10;26.50;;;;;;5067250;28;20436;-76
2022/04/10 11:28:30;;;;;;;0.90;0.73;;;34.00;27.40;;;;;;5068809;28;20942;-75
2022/04/10 11:30:56;;;;;;;4.60;1.10;;;35.50;26.80;;;;;;5068694;28;20412;-75
2022/04/10 11:33:22;;;;;;;1.20;1.10;;;36.70;26.50;;;;;;5068266;28;20396;-77
2022/04/10 11:35:56;;;;;;;1.50;1.20;;;37.80;26.60;;;;;;5068379;28;20283;-76
2022/04/10 11:38:23;;;;;;;1.10;0.97;;;39.40;25.90;;;;;;5068505;28;20389;-74
2022/04/10 11:40:51;;;;;;;0.97;0.87;;;41.40;25.70;;;;;;5068445;28;20400;-75
2022/04/10 11:43:19;;;;;;;1.33;1.00;;;41.50;24.50;;;;;;5068381;28;20396;-74
2022/04/10 11:45:48;;;;;;;1.40;1.20;;;40.50;24.10;;;;;;5068197;28;20419;-74
2022/04/10 11:48:14;;;;;;;4.00;1.20;;;39.10;23.90;;;;;;5068215;28;20497;-74
2022/04/10 11:50:40;;;;;;;4.80;0.80;;;37.50;23.80;;;;;;5068346;28;20409;-74
2022/04/10 11:53:11;;;;;;;2.70;0.80;;;35.70;24.30;;;;;;5068162;28;20208;-74
2022/04/10 11:55:41;;;;;;;0.90;0.70;;;35.20;25.30;;;;;;5067634;28;20459;-76
2022/04/10 11:58:27;;;;;;;1.00;0.90;;;36.90;25.60;;;;;;5068061;28;20397;-74
2022/04/10 12:00:58;;;;;;;1.10;0.90;;;38.30;24.90;;;;;;5068151;28;20407;-74
2022/04/10 12:03:33;;;;;;;0.93;0.80;;;39.70;24.80;;;;;;5068040;28;20397;-74
2022/04/10 12:05:59;;;;;;;1.30;1.07;;;41.30;24.20;;;;;;5066182;28;20490;-74
2022/04/10 12:08:24;;;;;;;1.47;1.37;;;42.70;23.80;;;;;;5054424;28;20413;-74
2022/04/10 12:10:54;;;;;;;2.13;1.20;;;42.50;23.20;;;;;;5054769;28;20207;-75
2022/04/10 12:13:20;;;;;;;2.60;2.40;;;42.80;23.30;;;;;;5053271;28;20210;-74
2022/04/10 12:15:46;;;;;;;1.57;1.30;;;44.30;23.20;;;;;;5054295;28;20464;-74
2022/04/10 12:18:13;;;;;;;1.30;1.20;;;44.30;22.50;;;;;;5054517;28;20409;-74
2022/04/10 12:20:43;;;;;;;1.73;1.17;;;45.00;22.40;;;;;;5054593;28;20694;-75
2022/04/10 12:23:20;;;;;;;1.27;1.17;;;44.40;21.80;;;;;;5053137;28;20387;-74
2022/04/10 12:25:50;;;;;;;1.40;1.30;;;42.40;22.10;;;;;;5054128;28;20456;-74
2022/04/10 12:28:17;;;;;;;1.30;1.00;;;41.60;21.80;;;;;;5054404;28;20410;-74
2022/04/10 12:30:44;;;;;;;1.83;1.17;;;40.90;21.90;;;;;;5054419;28;20401;-74
2022/04/10 12:33:11;;;;;;;1.10;1.00;;;39.30;22.30;;;;;;5054221;28;20431;-74
2022/04/10 12:35:39;;;;;;;1.00;0.90;;;37.60;22.60;;;;;;5053837;28;20496;-74
2022/04/10 12:38:05;;;;;;;1.10;0.90;;;38.20;23.80;;;;;;5054105;28;20902;-74
2022/04/10 12:40:31;;;;;;;1.10;1.00;;;40.20;23.10;;;;;;5054186;28;20444;-74
2022/04/10 12:43:01;;;;;;;1.50;1.37;;;40.10;22.10;;;;;;5054212;28;20484;-73
2022/04/10 12:45:31;;;;;;;1.73;1.27;;;38.50;22.00;;;;;;5052363;28;20440;-73
2022/04/10 12:47:57;;;;;;;1.10;0.80;;;36.90;22.70;;;;;;5054018;28;20397;-73
2022/04/10 12:50:25;;;;;;;3.37;1.47;;;37.10;23.60;;;;;;5054009;28;20981;-75
2022/04/10 12:52:57;;;;;;;8.93;1.70;;;38.50;23.40;;;;;;5053805;28;20494;-74
2022/04/10 12:55:24;;;;;;;1.00;0.90;;;40.10;23.10;;;;;;5053312;28;20954;-74
2022/04/10 12:58:03;;;;;;;1.20;1.10;;;42.10;22.80;;;;;;5052424;28;20413;-74
2022/04/10 13:00:32;;;;;;;1.97;1.80;;;44.20;22.30;;;;;;5053817;28;20366;-74